Time;durP1;ratioP1;P1;durP2;ratioP2;P2;SDS_P1;SDS_P2;PMS_P1;PMS_P2;Temp;Humidity;BMP_temperature;BMP_pressure;BME280_temperature;BME280_humidity;BME280_pressure;Samples;Min_cycle;Max_cycle;Signal;HPM_P1;HPM_P2
2021/05/23 00:02:07;;;;;;;2.80;2.15;;;;;;;9.71;74.20;93670.91;5052146;28;20029;-39
2021/05/23 00:04:33;;;;;;;4.43;2.75;;;;;;;9.49;75.90;93660.41;5052128;28;20414;-41
2021/05/23 00:06:58;;;;;;;3.45;2.83;;;;;;;9.54;76.28;93660.28;5051623;28;20032;-41
2021/05/23 00:09:25;;;;;;;6.25;3.38;;;;;;;9.42;76.86;93647.31;5052072;28;20031;-41
2021/05/23 00:11:51;;;;;;;7.30;2.83;;;;;;;9.40;77.02;93649.88;5051815;28;20036;-41
2021/05/23 00:14:18;;;;;;;5.22;3.90;;;;;;;9.44;77.23;93653.03;5051210;28;20083;-40
2021/05/23 00:16:43;;;;;;;9.13;3.45;;;;;;;9.46;76.59;93650.47;5033252;28;20088;-40
2021/05/23 00:19:09;;;;;;;4.20;2.15;;;;;;;9.55;75.67;93645.22;5031515;28;20018;-40
2021/05/23 00:21:35;;;;;;;7.75;2.35;;;;;;;9.37;75.16;93645.41;5031684;28;20030;-41
2021/05/23 00:24:00;;;;;;;4.18;2.88;;;;;;;9.58;74.71;93643.41;5031877;28;20025;-40
2021/05/23 00:26:26;;;;;;;11.57;2.40;;;;;;;9.67;74.12;93643.69;5031567;28;20660;-41
2021/05/23 00:28:53;;;;;;;4.82;1.92;;;;;;;9.71;74.22;93646.09;5031744;28;20055;-41
2021/05/23 00:31:19;;;;;;;5.80;3.28;;;;;;;9.59;74.17;93639.38;5031705;28;20057;-40
2021/05/23 00:33:44;;;;;;;4.65;2.30;;;;;;;9.55;74.23;93636.22;5031464;28;20079;-41
2021/05/23 00:36:10;;;;;;;8.32;3.70;;;;;;;9.18;75.21;93631.81;5030154;28;20075;-40
2021/05/23 00:38:35;;;;;;;4.97;2.35;;;;;;;9.06;75.24;93636.09;5031607;28;20045;-41
2021/05/23 00:41:01;;;;;;;2.10;1.63;;;;;;;8.87;75.70;93639.00;5031577;28;20025;-41
2021/05/23 00:43:27;;;;;;;2.72;1.95;;;;;;;8.88;75.98;93637.72;5031140;28;20142;-41
2021/05/23 00:45:52;;;;;;;2.95;2.22;;;;;;;9.05;75.42;93631.88;5031250;28;20034;-40
2021/05/23 00:48:20;;;;;;;2.03;1.58;;;;;;;8.99;75.84;93639.50;5030862;28;20029;-40
2021/05/23 00:50:46;;;;;;;2.33;1.75;;;;;;;8.80;76.21;93639.66;5030280;28;20036;-40
2021/05/23 00:53:12;;;;;;;1.95;1.50;;;;;;;8.83;76.26;93646.84;5030362;28;20022;-41
2021/05/23 00:55:38;;;;;;;2.90;1.60;;;;;;;8.81;75.52;93643.16;5030899;28;20024;-42
2021/05/23 00:58:04;;;;;;;1.48;1.38;;;;;;;8.98;74.64;93638.03;5030539;28;20018;-41
2021/05/23 01:00:33;;;;;;;3.17;1.60;;;;;;;8.92;75.44;93638.13;5030657;28;20096;-40
2021/05/23 01:03:02;;;;;;;1.95;1.27;;;;;;;8.87;75.72;93652.03;5027537;28;20021;-40
2021/05/23 01:05:29;;;;;;;3.15;2.30;;;;;;;8.94;75.67;93641.09;5030411;28;20017;-41
2021/05/23 01:07:54;;;;;;;4.07;3.67;;;;;;;8.99;75.34;93645.00;5032726;28;20493;-40
2021/05/23 01:10:21;;;;;;;5.00;3.53;;;;;;;9.00;75.74;93644.47;5029914;28;20029;-40
2021/05/23 01:12:53;;;;;;;4.70;2.55;;;;;;;8.96;76.11;93641.31;5012468;28;20017;-40
2021/05/23 01:15:39;;;;;;;4.75;2.47;;;;;;;9.02;75.87;93649.44;5029901;28;20060;-42
2021/05/23 01:18:14;;;;;;;2.45;2.25;;;;;;;9.04;75.74;93646.91;5027429;28;20033;-41
2021/05/23 01:20:59;;;;;;;3.22;2.50;;;;;;;8.62;76.68;93637.03;5030009;28;20029;-42
2021/05/23 01:23:29;;;;;;;9.20;3.88;;;;;;;8.77;76.58;93642.75;5009987;28;20037;-41
2021/05/23 01:26:04;;;;;;;2.92;2.65;;;;;;;8.91;75.54;93642.16;5030369;28;20128;-40
2021/05/23 01:28:33;;;;;;;3.28;2.67;;;;;;;8.60;75.76;93647.84;5028048;28;20033;-41
2021/05/23 01:30:58;;;;;;;2.85;1.90;;;;;;;8.54;76.86;93642.44;5012348;28;20049;-46
2021/05/23 01:33:23;;;;;;;7.30;2.40;;;;;;;8.62;76.40;93642.56;5029930;28;20045;-41
2021/05/23 01:35:56;;;;;;;3.03;2.22;;;;;;;8.59;76.40;93638.84;5030143;28;20021;-41
2021/05/23 01:38:21;;;;;;;4.28;2.72;;;;;;;8.72;76.29;93636.06;5030380;28;20021;-43
2021/05/23 01:40:49;;;;;;;3.75;2.53;;;;;;;8.74;75.48;93633.53;5029938;28;20080;-46
2021/05/23 01:43:14;;;;;;;3.42;2.97;;;;;;;8.72;74.84;93636.06;5029668;28;20063;-40
2021/05/23 01:45:40;;;;;;;3.25;1.80;;;;;;;8.57;74.65;93630.38;5029791;28;20029;-42
2021/05/23 01:48:07;;;;;;;3.13;1.92;;;;;;;8.43;75.62;93631.66;5029682;28;20022;-44
2021/05/23 01:50:33;;;;;;;2.78;1.75;;;;;;;8.37;76.14;93644.78;5029618;28;20494;-41
2021/05/23 01:53:01;;;;;;;2.35;1.60;;;;;;;8.49;75.62;93634.31;5029382;28;20024;-41
2021/05/23 01:55:27;;;;;;;3.95;2.38;;;;;;;8.33;76.31;93638.88;5026924;28;20513;-42
2021/05/23 01:57:53;;;;;;;2.03;1.55;;;;;;;8.12;77.42;93635.97;5029021;28;20079;-42
2021/05/23 02:00:25;;;;;;;2.90;2.25;;;;;;;8.05;77.96;93630.38;5028463;28;20060;-44
2021/05/23 02:02:50;;;;;;;2.58;2.30;;;;;;;8.02;78.11;93626.66;5028648;28;20013;-42
2021/05/23 02:05:16;;;;;;;6.45;4.18;;;;;;;8.32;77.16;93623.63;5011389;28;20040;-42
2021/05/23 02:07:41;;;;;;;9.63;5.03;;;;;;;8.44;76.74;93627.66;5011280;28;20488;-42
2021/05/23 02:10:13;;;;;;;6.80;4.43;;;;;;;8.30;77.55;93634.41;5030304;28;20113;-41
2021/05/23 02:12:39;;;;;;;6.80;4.38;;;;;;;8.32;77.55;93642.88;5029625;28;20032;-41
2021/05/23 02:15:06;;;;;;;6.53;3.20;;;;;;;8.48;77.13;93644.56;5028134;28;20030;-41
2021/05/23 02:17:37;;;;;;;7.18;3.08;;;;;;;8.28;75.78;93643.19;5028635;28;20025;-44
2021/05/23 02:20:09;;;;;;;5.65;3.38;;;;;;;8.45;75.78;93636.63;5028519;28;20017;-40
2021/05/23 02:22:41;;;;;;;5.85;2.88;;;;;;;8.30;76.44;93626.91;5028177;28;20080;-41
2021/05/23 02:25:09;;;;;;;5.15;3.25;;;;;;;8.40;76.29;93643.75;5026049;28;20037;-41
2021/05/23 02:27:36;;;;;;;2.33;2.05;;;;;;;8.50;75.43;93642.03;5028533;28;20025;-44
2021/05/23 02:30:05;;;;;;;10.85;2.22;;;;;;;8.38;75.25;93651.78;5028199;28;20022;-44
2021/05/23 02:32:31;;;;;;;2.67;2.13;;;;;;;8.13;76.11;93642.97;5028227;28;20033;-40
2021/05/23 02:34:56;;;;;;;3.50;2.25;;;;;;;8.27;75.63;93632.72;5028202;28;20080;-40
2021/05/23 02:37:21;;;;;;;2.85;2.60;;;;;;;8.26;75.01;93636.75;5028406;28;20028;-44
2021/05/23 02:39:47;;;;;;;2.75;1.40;;;;;;;8.25;76.39;93638.00;5028389;28;20028;-42
2021/05/23 02:42:12;;;;;;;10.30;3.22;;;;;;;8.24;76.14;93642.75;5000283;28;20076;-40
2021/05/23 02:44:38;;;;;;;5.05;3.53;;;;;;;8.30;75.52;93637.16;5019050;28;20514;-40
2021/05/23 02:47:03;;;;;;;3.78;2.65;;;;;;;8.34;75.05;93641.06;5025484;28;20021;-39
2021/05/23 02:49:29;;;;;;;5.32;2.22;;;;;;;8.18;75.44;93649.63;5027731;28;20467;-41
2021/05/23 02:51:55;;;;;;;16.00;3.03;;;;;;;8.13;76.24;93648.44;5027844;28;20096;-42
2021/05/23 02:54:20;;;;;;;4.15;3.17;;;;;;;8.07;77.04;93647.81;5027948;28;20026;-40
2021/05/23 02:56:46;;;;;;;12.10;2.50;;;;;;;8.01;76.61;93646.44;5027853;28;20430;-41
2021/05/23 02:59:11;;;;;;;3.67;1.60;;;;;;;7.73;76.23;93649.69;5031358;28;20032;-39
2021/05/23 03:01:37;;;;;;;2.58;1.63;;;;;;;7.71;76.11;93651.47;5033009;28;20104;-42
2021/05/23 03:04:02;;;;;;;2.25;1.48;;;;;;;7.61;76.52;93662.09;5031980;28;20458;-46
2021/05/23 03:06:28;;;;;;;1.52;1.02;;;;;;;7.87;76.67;93653.91;5031962;28;20491;-40
2021/05/23 03:08:53;;;;;;;1.92;1.67;;;;;;;8.03;75.47;93652.16;5033664;28;20018;-40
2021/05/23 03:11:19;;;;;;;3.33;1.88;;;;;;;7.98;76.03;93650.22;5020806;28;20048;-40
2021/05/23 03:13:44;;;;;;;5.57;2.63;;;;;;;8.08;75.60;93643.03;5022860;28;20426;-42
2021/05/23 03:16:10;;;;;;;2.95;2.13;;;;;;;7.93;77.27;93649.06;5021395;28;20377;-41
2021/05/23 03:18:35;;;;;;;4.07;1.92;;;;;;;7.98;76.22;93650.22;5021305;28;20051;-41
2021/05/23 03:21:01;;;;;;;5.35;2.78;;;;;;;8.06;76.81;93660.06;5022647;28;20442;-39
2021/05/23 03:23:26;;;;;;;2.80;2.60;;;;;;;8.19;77.18;93659.34;5021198;28;20466;-40
2021/05/23 03:25:52;;;;;;;2.95;2.63;;;;;;;8.36;76.18;93654.28;5021683;28;20467;-41
2021/05/23 03:28:17;;;;;;;2.60;1.88;;;;;;;8.43;75.03;93661.91;5030799;28;20084;-40
2021/05/23 03:30:43;;;;;;;2.70;1.63;;;;;;;8.38;74.69;93662.78;5031613;28;20418;-40
2021/05/23 03:33:09;;;;;;;2.08;1.65;;;;;;;8.36;74.30;93665.28;5031103;28;20418;-40
2021/05/23 03:35:35;;;;;;;2.33;1.63;;;;;;;8.35;74.84;93669.34;5031744;28;20029;-42
2021/05/23 03:38:02;;;;;;;2.25;1.48;;;;;;;8.47;74.41;93670.59;5019980;28;20037;-42
2021/05/23 03:40:29;;;;;;;2.08;1.88;;;;;;;8.51;74.83;93671.00;5004468;28;20025;-41
2021/05/23 03:42:55;;;;;;;3.50;2.83;;;;;;;8.60;74.36;93678.13;5021797;28;20724;-40
2021/05/23 03:45:22;;;;;;;16.70;8.50;;;;;;;8.48;74.59;93677.59;5020192;28;20123;-40
2021/05/23 03:47:48;;;;;;;19.83;9.82;;;;;;;8.28;76.15;93681.72;5021814;28;20025;-43
2021/05/23 03:50:19;;;;;;;9.05;5.70;;;;;;;8.38;75.62;93690.28;5022674;28;20026;-42
2021/05/23 03:52:44;;;;;;;7.30;4.88;;;;;;;8.49;75.66;93689.34;5028693;28;20025;-40
2021/05/23 03:55:10;;;;;;;7.13;4.18;;;;;;;8.61;75.58;93690.59;5030528;28;20040;-40
2021/05/23 03:57:36;;;;;;;5.95;4.20;;;;;;;8.68;74.60;93687.97;5020502;28;20025;-39
2021/05/23 04:00:07;;;;;;;5.63;3.47;;;;;;;8.73;74.26;93687.09;5004480;28;20033;-40
2021/05/23 04:02:32;;;;;;;9.23;5.40;;;;;;;8.52;74.89;93691.75;5020912;28;20025;-41
2021/05/23 04:04:58;;;;;;;7.57;4.07;;;;;;;8.59;75.24;93684.88;5030402;28;20025;-39
2021/05/23 04:07:25;;;;;;;7.70;4.15;;;;;;;8.69;75.64;93692.19;5030426;28;20025;-40
2021/05/23 04:09:52;;;;;;;3.95;3.33;;;;;;;8.82;76.07;93692.16;5030517;28;20057;-40
2021/05/23 04:12:29;;;;;;;5.93;2.97;;;;;;;8.92;75.47;93692.47;5030566;28;20521;-39
2021/05/23 04:14:54;;;;;;;7.35;2.95;;;;;;;9.07;75.50;93685.13;5029464;28;20112;-39
2021/05/23 04:17:19;;;;;;;8.10;4.28;;;;;;;9.15;74.85;93688.72;5030221;28;20121;-39
2021/05/23 04:19:45;;;;;;;11.18;4.05;;;;;;;9.09;75.75;93701.13;5030180;28;20025;-39
2021/05/23 04:22:11;;;;;;;4.90;3.90;;;;;;;9.12;76.70;93700.78;5030621;28;20052;-40
2021/05/23 04:24:39;;;;;;;4.95;4.20;;;;;;;9.24;76.77;93701.31;5029658;28;20539;-41
2021/05/23 04:27:05;;;;;;;7.82;4.38;;;;;;;9.36;76.46;93712.81;5027260;28;20703;-40
2021/05/23 04:29:32;;;;;;;6.28;3.92;;;;;;;9.16;78.91;93706.72;5030420;28;20026;-39
2021/05/23 04:31:59;;;;;;;6.47;3.85;;;;;;;9.18;79.99;93717.22;5030357;28;20116;-39
2021/05/23 04:34:25;;;;;;;8.73;3.53;;;;;;;9.47;79.52;93723.59;5027799;28;20116;-40
2021/05/23 04:36:50;;;;;;;8.30;4.28;;;;;;;9.66;78.60;93718.63;5029948;28;20461;-42
2021/05/23 04:39:16;;;;;;;12.25;4.68;;;;;;;9.75;78.64;93709.91;5029997;28;20696;-41
2021/05/23 04:41:41;;;;;;;4.35;2.80;;;;;;;9.92;78.11;93718.53;5029997;28;20025;-43
2021/05/23 04:44:07;;;;;;;4.47;2.65;;;;;;;9.97;78.29;93709.38;5029843;28;20041;-41
2021/05/23 04:46:34;;;;;;;4.32;2.70;;;;;;;10.23;77.51;93714.03;5011962;28;20036;-40
2021/05/23 04:48:59;;;;;;;3.83;2.83;;;;;;;10.28;77.61;93716.69;5030004;28;20100;-41
2021/05/23 04:51:25;;;;;;;8.35;4.88;;;;;;;10.51;77.22;93712.06;5027457;28;20095;-40
2021/05/23 04:53:51;;;;;;;9.48;6.07;;;;;;;10.66;76.76;93706.63;5029744;28;20025;-40
2021/05/23 04:56:16;;;;;;;16.02;8.15;;;;;;;10.99;76.22;93702.19;5029161;28;20029;-42
2021/05/23 04:58:41;;;;;;;11.30;6.55;;;;;;;11.32;74.63;93698.47;5029111;28;20021;-43
2021/05/23 05:01:07;;;;;;;11.75;8.05;;;;;;;11.59;73.52;93693.38;5030154;28;20034;-41
2021/05/23 05:03:32;;;;;;;12.57;6.72;;;;;;;11.92;72.19;93686.84;5028912;28;20021;-45
2021/05/23 05:05:58;;;;;;;10.85;7.03;;;;;;;12.27;71.32;93692.75;5029934;28;20053;-41
2021/05/23 05:08:23;;;;;;;7.25;4.47;;;;;;;12.51;70.73;93683.88;5029368;28;20414;-43
2021/05/23 05:10:49;;;;;;;7.40;4.40;;;;;;;12.58;71.16;93681.09;5029585;28;20021;-42
2021/05/23 05:13:14;;;;;;;8.05;4.40;;;;;;;12.62;71.21;93675.19;5029298;28;20029;-42
2021/05/23 05:15:39;;;;;;;4.70;3.65;;;;;;;12.68;71.43;93684.78;5029296;28;20053;-43
2021/05/23 05:18:05;;;;;;;14.18;2.95;;;;;;;12.68;71.44;93684.03;5018874;28;20034;-40
2021/05/23 05:20:30;;;;;;;5.10;3.10;;;;;;;12.72;71.00;93681.63;5019667;28;20570;-42
2021/05/23 05:22:56;;;;;;;6.88;3.88;;;;;;;12.80;71.18;93685.13;5018704;28;20136;-41
2021/05/23 05:25:21;;;;;;;9.25;4.97;;;;;;;12.80;71.91;93676.81;5020660;28;20025;-42
2021/05/23 05:27:47;;;;;;;6.35;4.20;;;;;;;12.80;71.88;93685.84;5018373;28;20483;-41
2021/05/23 05:30:14;;;;;;;6.28;4.43;;;;;;;13.00;72.93;93681.38;5019469;28;20047;-41
2021/05/23 05:32:39;;;;;;;5.93;4.32;;;;;;;13.15;72.91;93684.13;5019734;28;20431;-42
2021/05/23 05:35:05;;;;;;;6.85;3.80;;;;;;;13.13;73.33;93678.41;5030242;28;20037;-42
2021/05/23 05:37:31;;;;;;;7.30;3.47;;;;;;;13.21;73.74;93681.88;5030279;28;20083;-43
2021/05/23 05:39:56;;;;;;;7.15;3.97;;;;;;;13.10;73.57;93692.66;5029664;28;20034;-44
2021/05/23 05:42:22;;;;;;;5.97;4.03;;;;;;;13.24;73.24;93689.09;5028875;28;20036;-42
2021/05/23 05:44:47;;;;;;;8.15;4.95;;;;;;;13.32;73.60;93687.00;5028232;28;20036;-42
2021/05/23 05:47:12;;;;;;;5.05;3.58;;;;;;;13.52;72.80;93688.03;5028506;28;20033;-44
2021/05/23 05:49:38;;;;;;;5.90;4.28;;;;;;;13.62;72.89;93683.38;5028938;28;20048;-43
2021/05/23 05:52:04;;;;;;;8.07;4.68;;;;;;;13.72;72.69;93700.16;5028504;28;20465;-42
2021/05/23 05:54:30;;;;;;;3.60;2.58;;;;;;;13.78;71.40;93687.53;5028937;28;20056;-41
2021/05/23 05:56:57;;;;;;;4.15;2.97;;;;;;;14.01;71.26;93688.09;5038569;28;20139;-41
2021/05/23 05:59:22;;;;;;;4.10;2.95;;;;;;;14.18;71.33;93679.88;5049745;28;20560;-43
2021/05/23 06:01:48;;;;;;;2.42;2.03;;;;;;;14.30;70.88;93680.16;5049672;28;20057;-42
2021/05/23 06:04:13;;;;;;;2.88;2.15;;;;;;;14.40;69.46;93681.03;5049173;28;20059;-42
2021/05/23 06:06:39;;;;;;;2.30;1.38;;;;;;;14.47;68.03;93685.03;5047958;28;20020;-42
2021/05/23 06:09:05;;;;;;;19.05;2.38;;;;;;;14.76;68.32;93689.59;5028847;28;20421;-43
2021/05/23 06:11:30;;;;;;;2.78;1.83;;;;;;;14.95;68.57;93691.78;5029562;28;20037;-45
2021/05/23 06:13:55;;;;;;;3.58;1.77;;;;;;;15.14;67.50;93697.53;5011702;28;20033;-41
2021/05/23 06:16:21;;;;;;;1.40;1.30;;;;;;;15.34;64.69;93687.28;5029390;28;20041;-42
2021/05/23 06:18:46;;;;;;;2.70;1.75;;;;;;;15.50;65.15;93696.97;5029818;28;20479;-44
2021/05/23 06:21:12;;;;;;;2.42;1.98;;;;;;;15.64;62.67;93692.50;5029670;28;20029;-43
2021/05/23 06:23:37;;;;;;;3.75;2.15;;;;;;;15.76;63.81;93699.03;5029343;28;20039;-44
2021/05/23 06:26:04;;;;;;;2.38;1.25;;;;;;;15.90;58.82;93694.56;5029278;28;20026;-44
2021/05/23 06:28:29;;;;;;;1.33;1.23;;;;;;;16.02;58.71;93692.75;5029275;28;20026;-45
2021/05/23 06:30:58;;;;;;;3.58;1.80;;;;;;;16.10;59.72;93687.78;5029288;28;20068;-43
2021/05/23 06:33:23;;;;;;;3.35;2.08;;;;;;;16.46;57.21;93690.56;5028194;28;20026;-43
2021/05/23 06:35:48;;;;;;;1.05;0.98;;;;;;;16.62;56.03;93696.66;5029355;28;20498;-43
2021/05/23 06:38:14;;;;;;;2.53;1.67;;;;;;;16.75;57.94;93687.16;5028537;28;20049;-43
2021/05/23 06:40:39;;;;;;;2.65;1.75;;;;;;;16.97;56.92;93686.03;5029132;28;20028;-44
2021/05/23 06:43:05;;;;;;;1.77;1.45;;;;;;;17.34;55.76;93679.75;5029058;28;20041;-43
2021/05/23 06:45:30;;;;;;;3.47;1.98;;;;;;;17.45;55.94;93673.56;5011895;28;20029;-45
2021/05/23 06:47:56;;;;;;;6.72;2.30;;;;;;;17.85;52.52;93695.28;5029163;28;20091;-47
2021/05/23 06:50:21;;;;;;;2.13;1.80;;;;;;;18.18;52.41;93696.25;5028991;28;20075;-46
2021/05/23 06:52:46;;;;;;;2.40;1.65;;;;;;;18.38;55.37;93708.09;5034589;28;20067;-44
2021/05/23 06:55:12;;;;;;;7.63;2.20;;;;;;;18.53;51.09;93707.03;5048863;28;20082;-43
2021/05/23 06:57:38;;;;;;;1.48;1.27;;;;;;;18.76;50.66;93710.03;5032217;28;20121;-46
2021/05/23 07:00:08;;;;;;;2.92;1.52;;;;;;;19.02;51.24;93717.38;5028417;28;20438;-44
2021/05/23 07:02:33;;;;;;;3.33;1.77;;;;;;;19.34;50.08;93713.22;5028263;28;20037;-45
2021/05/23 07:04:59;;;;;;;1.73;1.30;;;;;;;19.65;51.05;93706.22;5010269;28;20470;-43
2021/05/23 07:07:24;;;;;;;2.30;1.33;;;;;;;19.80;49.90;93702.25;5027744;28;20152;-43
2021/05/23 07:09:50;;;;;;;1.50;1.35;;;;;;;19.97;49.55;93704.00;5028009;28;20029;-44
2021/05/23 07:12:15;;;;;;;2.35;1.27;;;;;;;20.27;49.38;93705.94;5010172;28;20029;-44
2021/05/23 07:14:41;;;;;;;2.13;1.92;;;;;;;20.68;47.74;93684.63;5028096;28;20017;-45
2021/05/23 07:17:06;;;;;;;2.10;1.63;;;;;;;21.06;47.96;93689.03;5027603;28;20046;-44
2021/05/23 07:19:31;;;;;;;2.50;1.10;;;;;;;20.86;46.05;93687.78;5027803;28;20029;-45
2021/05/23 07:21:57;;;;;;;1.08;0.80;;;;;;;20.42;48.03;93687.91;5027909;28;20033;-44
2021/05/23 07:24:22;;;;;;;1.63;1.10;;;;;;;20.93;48.00;93681.19;5027631;28;20029;-44
2021/05/23 07:26:48;;;;;;;2.15;1.42;;;;;;;21.83;46.93;93685.75;5024993;28;20025;-45
2021/05/23 07:29:13;;;;;;;4.60;1.20;;;;;;;22.67;42.98;93680.53;5027796;28;20033;-45
2021/05/23 07:31:39;;;;;;;3.60;1.45;;;;;;;23.87;40.27;93688.78;5029291;28;20486;-43
2021/05/23 07:34:04;;;;;;;1.58;1.48;;;;;;;25.42;39.31;93685.44;5027377;28;20084;-41
2021/05/23 07:36:30;;;;;;;1.92;1.00;;;;;;;26.65;35.31;93681.19;5027831;28;20068;-43
2021/05/23 07:38:55;;;;;;;1.10;0.90;;;;;;;27.85;33.66;93679.19;5009698;28;20025;-42
2021/05/23 07:41:22;;;;;;;0.70;0.70;;;;;;;29.04;29.17;93674.44;5027457;28;20024;-41
2021/05/23 07:43:47;;;;;;;1.42;0.90;;;;;;;29.75;29.36;93674.31;5027527;28;20087;-44
2021/05/23 07:46:14;;;;;;;1.15;1.05;;;;;;;30.63;28.75;93675.78;5031163;28;20458;-44
2021/05/23 07:48:39;;;;;;;2.75;1.00;;;;;;;30.34;27.40;93682.22;5031754;28;20082;-42
2021/05/23 07:51:05;;;;;;;4.18;1.10;;;;;;;30.16;27.82;93679.63;5030865;28;20013;-42
2021/05/23 07:53:30;;;;;;;2.20;1.40;;;;;;;30.47;29.46;93686.81;5031306;28;20052;-43
2021/05/23 07:55:56;;;;;;;1.40;0.98;;;;;;;30.81;27.49;93679.03;5031045;28;20059;-41
2021/05/23 07:58:23;;;;;;;2.13;1.25;;;;;;;31.25;27.89;93685.69;5030889;28;20043;-43
2021/05/23 08:00:49;;;;;;;2.38;1.23;;;;;;;31.45;27.81;93684.72;5028550;28;20030;-41
2021/05/23 08:03:14;;;;;;;1.70;0.80;;;;;;;32.18;26.14;93673.25;5030716;28;20037;-43
2021/05/23 08:05:40;;;;;;;2.75;1.20;;;;;;;33.10;25.49;93676.09;5030920;28;20025;-42
2021/05/23 08:08:06;;;;;;;2.55;1.80;;;;;;;33.77;24.65;93684.09;5030913;28;20025;-40
2021/05/23 08:10:32;;;;;;;10.63;2.10;;;;;;;34.32;23.01;93693.97;5031112;28;20520;-42
2021/05/23 08:12:57;;;;;;;2.15;1.15;;;;;;;34.71;23.11;93692.16;5030700;28;20061;-44
2021/05/23 08:15:23;;;;;;;3.10;1.88;;;;;;;34.84;22.51;93688.69;5030876;28;20073;-43
2021/05/23 08:17:52;;;;;;;2.20;1.00;;;;;;;33.56;23.25;93688.88;5025530;28;20450;-41
2021/05/23 08:20:18;;;;;;;1.42;0.85;;;;;;;32.75;25.08;93689.16;5030753;28;20108;-44
2021/05/23 08:22:43;;;;;;;1.23;1.13;;;;;;;33.47;26.34;93684.44;5030437;28;20108;-41
2021/05/23 08:25:09;;;;;;;1.23;0.75;;;;;;;34.50;23.86;93679.81;5030671;28;20052;-41
2021/05/23 08:27:35;;;;;;;0.80;0.70;;;;;;;34.14;23.71;93682.34;5030659;28;20172;-41
2021/05/23 08:30:00;;;;;;;2.05;0.82;;;;;;;34.48;22.35;93676.91;5030013;28;20021;-42
2021/05/23 08:32:26;;;;;;;2.30;1.08;;;;;;;34.17;23.08;93675.94;5029003;28;20032;-43
2021/05/23 08:34:51;;;;;;;1.88;1.20;;;;;;;34.64;23.11;93682.78;5030453;28;20030;-42
2021/05/23 08:37:18;;;;;;;1.20;0.95;;;;;;;33.81;23.49;93678.41;5030742;28;20013;-41
2021/05/23 08:39:44;;;;;;;1.30;0.80;;;;;;;34.25;24.30;93666.69;5030941;28;20036;-43
2021/05/23 08:42:10;;;;;;;1.95;1.00;;;;;;;34.42;23.34;93670.41;5030915;28;20064;-44
2021/05/23 08:44:36;;;;;;;0.85;0.80;;;;;;;34.49;23.38;93674.75;5029966;28;20046;-43
2021/05/23 08:47:02;;;;;;;0.77;0.77;;;;;;;35.52;22.14;93667.56;5029596;28;20486;-44
2021/05/23 08:49:28;;;;;;;0.80;0.80;;;;;;;35.78;22.66;93668.34;5030371;28;20032;-42
2021/05/23 08:51:54;;;;;;;0.70;0.70;;;;;;;35.94;23.32;93672.72;5030342;28;20049;-45
2021/05/23 08:54:20;;;;;;;1.83;1.08;;;;;;;37.08;20.02;93672.78;5030126;28;20478;-41
2021/05/23 08:56:46;;;;;;;1.17;0.80;;;;;;;37.02;19.07;93672.09;5025908;28;20030;-42
2021/05/23 08:59:12;;;;;;;2.55;0.90;;;;;;;37.24;19.90;93677.78;5028321;28;20041;-42
2021/05/23 09:01:38;;;;;;;0.70;0.70;;;;;;;37.61;19.94;93676.25;5029691;28;20399;-41
2021/05/23 09:04:07;;;;;;;1.75;1.02;;;;;;;38.10;19.06;93676.03;5028138;28;20065;-42
2021/05/23 09:06:38;;;;;;;1.58;1.00;;;;;;;38.05;18.38;93689.75;5027963;28;20037;-43
2021/05/23 09:09:09;;;;;;;2.35;0.43;;;;;;;37.79;17.23;93681.22;5027655;28;20112;-44
2021/05/23 09:11:36;;;;;;;1.80;1.52;;;;;;;38.10;18.15;93679.63;5028349;28;20477;-43
2021/05/23 09:14:04;;;;;;;1.17;0.80;;;;;;;38.43;16.30;93680.16;5028054;28;20485;-43
2021/05/23 09:16:37;;;;;;;0.77;0.63;;;;;;;38.34;17.67;93685.25;5023566;28;20053;-45
2021/05/23 09:19:03;;;;;;;2.28;1.10;;;;;;;38.38;17.25;93678.75;5028586;28;20474;-44
2021/05/23 09:21:32;;;;;;;0.77;0.73;;;;;;;37.95;17.13;93679.00;5026619;28;20487;-44
2021/05/23 09:24:00;;;;;;;1.63;1.10;;;;;;;37.95;18.13;93687.66;5029292;28;20026;-42
2021/05/23 09:26:28;;;;;;;2.95;0.60;;;;;;;38.04;16.22;93682.53;5029127;28;20112;-45
2021/05/23 09:29:02;;;;;;;0.88;0.80;;;;;;;38.03;17.29;93677.53;5029520;28;20022;-44
2021/05/23 09:31:30;;;;;;;2.65;1.10;;;;;;;38.15;17.42;93677.44;5029363;28;20035;-42
2021/05/23 09:33:57;;;;;;;0.88;0.60;;;;;;;38.32;17.08;93678.78;5026828;28;20041;-42
2021/05/23 09:36:22;;;;;;;0.65;0.60;;;;;;;38.53;17.86;93680.09;5028611;28;20025;-42
2021/05/23 09:38:59;;;;;;;0.57;0.55;;;;;;;38.01;17.40;93671.75;5028777;28;20578;-44
2021/05/23 09:41:27;;;;;;;0.50;0.50;;;;;;;38.25;16.98;93675.22;5028108;28;20025;-43
2021/05/23 09:44:20;;;;;;;1.58;0.93;;;;;;;38.57;16.16;93674.28;5036022;28;20025;-44
2021/05/23 09:47:03;;;;;;;0.47;0.40;;;;;;;38.87;15.33;93684.88;5028275;28;20041;-47
2021/05/23 09:49:31;;;;;;;0.85;0.70;;;;;;;38.95;12.63;93676.84;5010369;28;20036;-44
2021/05/23 09:52:02;;;;;;;0.20;0.20;;;;;;;38.80;14.04;93671.94;5027484;28;20064;-42
2021/05/23 09:54:29;;;;;;;0.52;0.43;;;;;;;38.22;15.15;93670.91;5028683;28;20560;-41
2021/05/23 09:56:55;;;;;;;0.87;0.77;;;;;;;38.88;14.53;93669.69;5029404;28;20091;-42
2021/05/23 09:59:26;;;;;;;2.60;0.70;;;;;;;38.92;15.63;93666.75;5029904;28;20534;-44
2021/05/23 10:02:04;;;;;;;0.45;0.45;;;;;;;38.90;13.17;93661.00;5030176;28;20103;-46
2021/05/23 10:04:29;;;;;;;0.47;0.45;;;;;;;38.41;15.15;93657.81;5029947;28;20412;-45
2021/05/23 10:07:06;;;;;;;0.22;0.22;;;;;;;38.46;13.56;93656.34;5029279;28;20037;-43
2021/05/23 10:09:32;;;;;;;0.73;0.40;;;;;;;38.64;13.31;93652.56;5030100;28;20029;-45
2021/05/23 10:11:58;;;;;;;0.50;0.38;;;;;;;39.23;14.01;93661.44;5029948;28;20031;-43
2021/05/23 10:14:24;;;;;;;0.98;0.25;;;;;;;39.07;12.72;93650.03;5011581;28;20021;-43
2021/05/23 10:16:51;;;;;;;0.55;0.43;;;;;;;39.16;12.14;93651.41;5028960;28;20059;-44
2021/05/23 10:19:29;;;;;;;0.70;0.50;;;;;;;39.21;14.02;93647.00;5011645;28;20033;-45
2021/05/23 10:22:01;;;;;;;0.93;0.60;;;;;;;39.33;12.49;93647.59;5026910;28;20114;-45
2021/05/23 10:24:29;;;;;;;0.45;0.43;;;;;;;39.32;11.35;93643.28;5028985;28;20040;-44
2021/05/23 10:26:58;;;;;;;0.35;0.22;;;;;;;39.20;10.98;93645.59;5011553;28;20029;-45
2021/05/23 10:29:24;;;;;;;0.47;0.47;;;;;;;39.53;11.62;93640.84;5011423;28;20025;-48
2021/05/23 10:31:49;;;;;;;0.70;0.60;;;;;;;39.86;13.42;93639.00;5029451;28;20109;-45
2021/05/23 10:34:15;;;;;;;0.65;0.25;;;;;;;39.87;13.56;93639.75;5028720;28;20481;-45
2021/05/23 10:36:43;;;;;;;2.70;0.50;;;;;;;39.66;14.42;93635.66;5047237;28;20029;-46
2021/05/23 10:39:11;;;;;;;0.25;0.25;;;;;;;39.67;13.38;93632.06;5048823;28;20032;-43
2021/05/23 10:41:37;;;;;;;1.52;0.47;;;;;;;39.97;13.23;93628.75;5041540;28;20064;-44
2021/05/23 10:44:06;;;;;;;0.47;0.45;;;;;;;39.90;12.53;93618.00;5028648;28;20029;-44
2021/05/23 10:46:42;;;;;;;0.30;0.30;;;;;;;40.19;13.19;93618.31;5028534;28;20029;-43
2021/05/23 10:49:08;;;;;;;0.55;0.55;;;;;;;40.07;12.91;93611.25;5028370;28;20445;-43
2021/05/23 10:51:33;;;;;;;0.40;0.30;;;;;;;40.10;13.33;93612.66;5028348;28;20022;-44
2021/05/23 10:53:59;;;;;;;0.22;0.22;;;;;;;40.18;12.63;93605.34;5028230;28;20024;-44
2021/05/23 10:56:28;;;;;;;1.17;0.57;;;;;;;39.82;14.16;93609.44;5028159;28;20509;-43
2021/05/23 10:59:07;;;;;;;0.50;0.50;;;;;;;39.32;13.62;93614.38;5028459;28;20017;-43
2021/05/23 11:01:41;;;;;;;2.55;0.68;;;;;;;39.44;14.64;93616.41;5026651;28;20018;-43
2021/05/23 11:04:17;;;;;;;1.10;0.57;;;;;;;39.06;15.55;93619.72;5025351;28;20029;-43
2021/05/23 11:06:45;;;;;;;0.95;0.47;;;;;;;37.95;12.16;93601.16;5025430;28;20033;-42
2021/05/23 11:09:20;;;;;;;0.85;0.68;;;;;;;37.38;16.49;93608.66;5027343;28;20029;-44
2021/05/23 11:11:45;;;;;;;0.90;0.47;;;;;;;36.89;13.38;93599.44;5023504;28;20706;-44
2021/05/23 11:14:12;;;;;;;3.42;0.77;;;;;;;36.59;14.84;93587.25;5028197;28;20072;-44
2021/05/23 11:16:48;;;;;;;0.85;0.60;;;;;;;36.35;16.19;93585.09;5027618;28;20057;-43
2021/05/23 11:19:13;;;;;;;0.43;0.43;;;;;;;35.68;16.13;93579.28;5028884;28;20036;-45
2021/05/23 11:21:40;;;;;;;0.35;0.35;;;;;;;35.30;17.71;93579.16;5013555;28;20025;-44
2021/05/23 11:24:06;;;;;;;0.75;0.52;;;;;;;35.27;18.18;93571.97;5029751;28;20030;-44
2021/05/23 11:26:32;;;;;;;1.23;1.10;;;;;;;35.13;18.56;93576.94;5012470;28;20415;-44
2021/05/23 11:28:59;;;;;;;0.60;0.60;;;;;;;34.55;18.52;93560.84;5030533;28;20116;-45
2021/05/23 11:31:36;;;;;;;1.77;0.90;;;;;;;34.38;19.57;93544.94;5030229;28;20040;-43
2021/05/23 11:34:03;;;;;;;1.02;0.80;;;;;;;34.08;19.11;93571.25;5030044;28;20025;-43
2021/05/23 11:36:32;;;;;;;1.40;0.73;;;;;;;33.73;20.78;93566.63;5030221;28;20486;-45